createdAt,value
2022-08-16T00:01:24.840Z,9.50
2022-08-16T00:03:55.382Z,8.90
2022-08-16T00:08:52.539Z,9.38
2022-08-16T00:11:21.574Z,9.30
2022-08-16T00:13:53.687Z,9.10
2022-08-16T00:17:01.376Z,10.27
2022-08-16T00:19:13.394Z,9.68
2022-08-16T00:21:41.749Z,9.45
2022-08-16T00:24:12.349Z,8.80
2022-08-16T00:26:45.420Z,9.15
2022-08-16T00:29:15.759Z,8.88
2022-08-16T00:31:47.069Z,9.65
2022-08-16T00:34:43.227Z,9.75
2022-08-16T00:37:12.768Z,9.75
2022-08-16T00:39:45.312Z,8.50
2022-08-16T00:42:14.733Z,8.65
2022-08-16T00:45:31.730Z,10.02
2022-08-16T00:48:31.249Z,9.75
2022-08-16T00:50:56.995Z,10.80
2022-08-16T00:53:24.707Z,8.32
2022-08-16T00:55:54.518Z,8.18
2022-08-16T00:58:34.953Z,9.20
2022-08-16T01:01:08.124Z,9.60
2022-08-16T01:03:37.472Z,8.63
2022-08-16T01:06:40.145Z,9.68
2022-08-16T01:08:59.879Z,8.85
2022-08-16T01:11:28.100Z,10.02
2022-08-16T01:14:00.605Z,9.30
2022-08-16T01:16:29.944Z,9.57
2022-08-16T01:21:34.831Z,9.20
2022-08-16T01:24:53.455Z,8.73
2022-08-16T01:27:11.556Z,9.05
2022-08-16T01:29:58.492Z,9.52
2022-08-16T01:32:33.187Z,8.45
2022-08-16T01:35:17.510Z,8.30
2022-08-16T01:37:53.954Z,9.65
2022-08-16T01:40:24.562Z,9.55
2022-08-16T01:42:55.522Z,9.52
2022-08-16T01:45:40.738Z,9.23
2022-08-16T01:48:19.676Z,8.60
2022-08-16T01:51:08.185Z,8.32
2022-08-16T01:53:40.709Z,9.50
2022-08-16T01:56:24.909Z,8.73
2022-08-16T01:58:58.296Z,9.82
2022-08-16T02:01:28.039Z,8.77
2022-08-16T02:04:10.825Z,9.52
2022-08-16T02:06:45.968Z,10.02
2022-08-16T02:09:17.784Z,9.07
2022-08-16T02:11:53.202Z,9.48
2022-08-16T02:14:27.475Z,9.23
2022-08-16T02:16:58.500Z,9.00
2022-08-16T02:19:59.481Z,10.68
2022-08-16T02:22:34.858Z,10.45
2022-08-16T02:25:10.100Z,9.47
2022-08-16T02:27:38.846Z,9.43
2022-08-16T02:30:36.696Z,9.65
2022-08-16T02:33:04.757Z,9.80
2022-08-16T02:35:54.049Z,9.40
2022-08-16T02:38:23.564Z,9.65
2022-08-16T02:40:51.851Z,9.43
2022-08-16T02:43:26.749Z,10.35
2022-08-16T02:45:56.420Z,9.48
2022-08-16T02:48:30.557Z,9.18
2022-08-16T02:51:10.641Z,9.48
2022-08-16T02:53:43.018Z,8.85
2022-08-16T02:56:14.562Z,10.15
2022-08-16T02:58:44.133Z,10.60
2022-08-16T03:01:24.593Z,9.85
2022-08-16T03:04:29.102Z,9.70
2022-08-16T03:06:56.185Z,9.68
2022-08-16T03:09:25.685Z,9.43
2022-08-16T03:11:57.424Z,10.38
2022-08-16T03:14:25.957Z,9.60
2022-08-16T03:16:59.617Z,10.50
2022-08-16T03:19:48.542Z,11.38
2022-08-16T03:22:27.807Z,9.95
2022-08-16T03:24:58.539Z,9.75
2022-08-16T03:27:30.773Z,9.60
2022-08-16T03:30:00.079Z,9.85
2022-08-16T03:32:27.652Z,9.27
2022-08-16T03:34:55.842Z,9.35
2022-08-16T03:37:24.743Z,8.90
2022-08-16T03:39:56.602Z,9.65
2022-08-16T03:42:30.042Z,9.02
2022-08-16T03:45:03.794Z,8.93
2022-08-16T03:47:34.059Z,9.82
2022-08-16T03:50:03.335Z,9.15
2022-08-16T03:52:31.608Z,10.30
2022-08-16T03:54:59.836Z,9.13
2022-08-16T03:57:32.014Z,9.43
2022-08-16T04:00:20.224Z,9.25
2022-08-16T04:03:08.627Z,9.88
2022-08-16T04:05:48.900Z,9.98
2022-08-16T04:08:23.339Z,9.90
2022-08-16T04:10:54.822Z,10.93
2022-08-16T04:14:00.996Z,9.10
2022-08-16T04:16:26.586Z,8.82
2022-08-16T04:19:02.040Z,9.75
2022-08-16T04:21:35.675Z,9.77
2022-08-16T04:24:07.781Z,9.75
2022-08-16T04:26:36.446Z,10.23
2022-08-16T04:29:14.960Z,10.95
2022-08-16T04:31:56.714Z,11.23
2022-08-16T04:34:32.500Z,9.65
2022-08-16T04:37:01.437Z,10.38
2022-08-16T04:39:45.796Z,9.00
2022-08-16T04:42:25.787Z,9.85
2022-08-16T04:44:56.300Z,9.95
2022-08-16T04:47:32.911Z,10.27
2022-08-16T04:50:08.392Z,9.70
2022-08-16T04:52:36.959Z,8.93
2022-08-16T04:55:07.739Z,9.15
2022-08-16T04:57:36.191Z,9.73
2022-08-16T05:00:31.952Z,9.38
2022-08-16T05:03:11.068Z,9.23
2022-08-16T05:05:45.315Z,9.93
2022-08-16T05:08:31.000Z,9.20
2022-08-16T05:11:03.407Z,9.02
2022-08-16T05:13:41.672Z,9.32
2022-08-16T05:16:22.915Z,10.52
2022-08-16T05:18:56.849Z,8.90
2022-08-16T05:21:36.020Z,8.27
2022-08-16T05:24:09.203Z,12.05
2022-08-16T05:26:42.996Z,10.30
2022-08-16T05:35:54.852Z,7.65
2022-08-16T05:38:32.447Z,9.55
2022-08-16T05:41:09.400Z,8.88
2022-08-16T05:43:43.657Z,10.57
2022-08-16T05:46:29.781Z,8.40
2022-08-16T05:49:08.675Z,7.55
2022-08-16T05:51:40.042Z,8.30
2022-08-16T05:54:14.150Z,7.60
2022-08-16T05:56:42.993Z,8.38
2022-08-16T05:59:10.781Z,8.10
2022-08-16T06:01:40.508Z,10.50
2022-08-16T06:04:13.441Z,8.32
2022-08-16T06:06:57.721Z,8.48
2022-08-16T06:09:37.132Z,8.00
2022-08-16T06:12:27.970Z,8.63
2022-08-16T06:14:59.630Z,10.20
2022-08-16T06:17:42.928Z,8.18
2022-08-16T06:20:15.337Z,10.00
2022-08-16T06:22:47.593Z,8.55
2022-08-16T06:25:35.441Z,8.23
2022-08-16T06:28:08.365Z,8.57
2022-08-16T06:30:43.389Z,8.02
2022-08-16T06:33:19.914Z,7.68
2022-08-16T06:35:54.996Z,7.90
2022-08-16T06:38:32.629Z,8.82
2022-08-16T06:41:13.560Z,8.30
2022-08-16T06:43:42.261Z,7.30
2022-08-16T06:46:31.311Z,7.28
2022-08-16T06:48:59.928Z,7.63
2022-08-16T06:54:17.359Z,6.75
2022-08-16T06:56:45.751Z,7.00
2022-08-16T06:59:13.733Z,6.65
2022-08-16T07:01:44.944Z,7.38
2022-08-16T07:04:28.180Z,6.38
2022-08-16T07:07:03.013Z,7.63
2022-08-16T07:09:30.885Z,6.72
2022-08-16T07:12:03.544Z,6.10
2022-08-16T07:14:33.949Z,7.80
2022-08-16T07:17:08.397Z,6.50
2022-08-16T07:20:03.474Z,7.40
2022-08-16T07:22:38.138Z,6.55
2022-08-16T07:25:14.573Z,6.55
2022-08-16T07:27:45.242Z,7.38
2022-08-16T07:30:39.091Z,6.22
2022-08-16T07:33:06.979Z,6.40
2022-08-16T07:35:37.456Z,6.68
2022-08-16T07:38:12.257Z,6.60
2022-08-16T07:40:59.260Z,6.45
2022-08-16T07:43:28.762Z,6.30
2022-08-16T07:45:57.196Z,7.00
2022-08-16T07:48:26.775Z,7.28
2022-08-16T07:50:56.393Z,6.78
2022-08-16T07:53:28.908Z,6.55
2022-08-16T07:55:58.129Z,6.47
2022-08-16T07:58:34.048Z,7.22
2022-08-16T08:01:10.488Z,7.82
2022-08-16T08:03:49.011Z,7.57
2022-08-16T08:06:19.014Z,7.03
2022-08-16T08:08:51.157Z,7.53
2022-08-16T08:11:21.310Z,7.88
2022-08-16T08:16:20.038Z,6.85
2022-08-16T08:19:00.398Z,7.97
2022-08-16T08:21:59.353Z,7.35
2022-08-16T08:24:19.142Z,6.72
2022-08-16T08:26:50.152Z,7.00
2022-08-16T08:29:23.148Z,7.20
2022-08-16T08:32:58.199Z,5.45
2022-08-16T08:34:53.217Z,5.50
2022-08-16T08:37:22.719Z,6.03
2022-08-16T08:39:54.663Z,6.22
2022-08-16T08:42:26.550Z,6.90
2022-08-16T08:44:54.672Z,6.50
2022-08-16T08:47:24.161Z,6.40
2022-08-16T08:49:55.519Z,6.40
2022-08-16T08:52:35.024Z,6.00
2022-08-16T08:55:11.231Z,5.13
2022-08-16T08:57:46.562Z,6.20
2022-08-16T09:00:21.362Z,7.43
2022-08-16T09:02:51.997Z,6.28
2022-08-16T09:05:23.147Z,6.10
2022-08-16T09:08:06.048Z,6.90
2022-08-16T09:10:33.930Z,5.93
2022-08-16T09:13:08.098Z,5.82
2022-08-16T09:15:39.204Z,4.80
2022-08-16T09:18:25.495Z,5.25
2022-08-16T09:21:00.194Z,5.73
2022-08-16T09:23:36.384Z,6.20
2022-08-16T09:26:45.604Z,6.07
2022-08-16T09:29:15.580Z,6.00
2022-08-16T09:31:43.882Z,6.38
2022-08-16T09:34:17.153Z,8.38
2022-08-16T09:36:47.221Z,7.15
2022-08-16T09:39:16.009Z,6.82
2022-08-16T09:41:53.954Z,6.88
2022-08-16T09:45:12.881Z,6.82
2022-08-16T09:47:15.535Z,6.45
2022-08-16T09:49:43.077Z,6.07
2022-08-16T09:52:19.545Z,6.85
2022-08-16T09:54:51.722Z,6.28
2022-08-16T09:57:22.829Z,6.70
2022-08-16T09:59:56.137Z,5.93
2022-08-16T10:02:27.215Z,6.25
2022-08-16T10:04:57.561Z,6.68
2022-08-16T10:07:55.150Z,6.55
2022-08-16T10:10:18.879Z,6.28
2022-08-16T10:13:16.251Z,7.32
2022-08-16T10:15:55.498Z,6.25
2022-08-16T10:21:10.771Z,6.22
2022-08-16T10:23:39.497Z,6.40
2022-08-16T10:27:20.108Z,6.63
2022-08-16T10:28:55.741Z,5.65
2022-08-16T10:31:45.632Z,7.85
2022-08-16T10:34:31.416Z,8.38
2022-08-16T10:36:59.368Z,7.38
2022-08-16T10:39:26.940Z,6.35
2022-08-16T10:42:09.700Z,6.20
2022-08-16T10:44:39.129Z,6.70
2022-08-16T10:47:06.839Z,6.25
2022-08-16T10:49:36.838Z,6.32
2022-08-16T10:57:35.216Z,5.82
2022-08-16T11:00:21.754Z,5.88
2022-08-16T11:02:57.880Z,5.93
2022-08-16T11:05:59.124Z,6.05
2022-08-16T11:11:11.489Z,6.65
2022-08-16T11:13:59.547Z,6.20
2022-08-16T11:19:17.475Z,6.55
2022-08-16T11:24:41.997Z,5.30
2022-08-16T11:27:23.239Z,6.53
2022-08-16T11:29:55.159Z,5.72
2022-08-16T11:32:31.196Z,5.55
2022-08-16T11:35:14.930Z,5.30
2022-08-16T11:40:40.778Z,5.30
2022-08-16T11:43:16.839Z,6.65
2022-08-16T11:45:53.869Z,5.50
2022-08-16T11:48:25.914Z,6.07
2022-08-16T11:50:54.710Z,6.22
2022-08-16T11:53:24.004Z,4.93
2022-08-16T11:55:55.001Z,5.40
2022-08-16T11:58:26.346Z,5.22
2022-08-16T12:00:57.980Z,4.47
2022-08-16T12:03:34.807Z,4.72
2022-08-16T12:06:10.920Z,5.00
2022-08-16T12:08:53.632Z,6.32
2022-08-16T12:11:24.091Z,6.68
2022-08-16T12:13:54.692Z,5.60
2022-08-16T12:16:22.424Z,5.72
2022-08-16T12:18:50.277Z,6.25
2022-08-16T12:21:18.162Z,5.30
2022-08-16T12:23:47.336Z,6.38
2022-08-16T12:26:14.941Z,5.88
2022-08-16T12:28:56.220Z,6.00
2022-08-16T12:31:24.701Z,5.53
2022-08-16T12:33:54.582Z,6.47
2022-08-16T12:36:33.574Z,6.03
2022-08-16T12:39:02.409Z,6.57
2022-08-16T12:44:04.133Z,5.00
2022-08-16T12:46:32.290Z,5.80
2022-08-16T12:49:07.217Z,5.55
2022-08-16T12:51:58.363Z,5.32
2022-08-16T12:54:27.756Z,5.65
2022-08-16T12:56:56.412Z,9.10
2022-08-16T12:59:24.162Z,5.70
2022-08-16T13:01:58.274Z,5.43
2022-08-16T13:04:31.465Z,8.05
2022-08-16T13:09:42.180Z,5.57
2022-08-16T13:12:24.925Z,5.10
2022-08-16T13:14:55.969Z,5.03
2022-08-16T13:17:30.009Z,4.90
2022-08-16T13:20:13.672Z,4.45
2022-08-16T13:23:04.037Z,4.70
2022-08-16T13:25:33.733Z,5.88
2022-08-16T13:28:17.020Z,6.13
2022-08-16T13:30:52.586Z,6.60
2022-08-16T13:33:37.827Z,6.72
2022-08-16T13:36:17.074Z,5.90
2022-08-16T13:38:55.872Z,7.78
2022-08-16T13:41:30.215Z,4.80
2022-08-16T13:44:01.029Z,4.32
2022-08-16T13:46:32.787Z,5.43
2022-08-16T13:49:00.638Z,6.07
2022-08-16T13:51:33.033Z,4.88
2022-08-16T13:54:07.170Z,15.43
2022-08-16T13:56:39.716Z,5.20
2022-08-16T13:59:20.508Z,5.10
2022-08-16T14:01:59.750Z,5.50
2022-08-16T14:04:35.321Z,4.43
2022-08-16T14:07:07.037Z,4.93
2022-08-16T14:09:36.793Z,4.05
2022-08-16T14:12:21.157Z,4.13
2022-08-16T14:14:54.527Z,3.95
2022-08-16T14:17:24.249Z,4.00
2022-08-16T14:19:52.219Z,4.40
2022-08-16T14:22:30.679Z,5.40
2022-08-16T14:24:59.644Z,5.22
2022-08-16T14:27:32.505Z,4.53
2022-08-16T14:30:03.446Z,4.68
2022-08-16T14:32:34.178Z,4.80
2022-08-16T14:35:12.334Z,4.95
2022-08-16T14:37:43.164Z,4.00
2022-08-16T14:40:15.276Z,4.60
2022-08-16T14:42:45.281Z,4.70
2022-08-16T14:45:22.358Z,4.60
2022-08-16T14:47:50.784Z,12.93
2022-08-16T14:50:22.610Z,6.18
2022-08-16T14:52:59.048Z,4.60
2022-08-16T14:55:28.896Z,5.47
2022-08-16T14:57:57.288Z,5.07
2022-08-16T15:00:33.949Z,6.20
2022-08-16T15:03:09.516Z,6.93
2022-08-16T15:05:39.226Z,6.78
2022-08-16T15:10:44.827Z,6.32
2022-08-16T15:13:15.095Z,5.95
2022-08-16T15:15:45.064Z,6.57
2022-08-16T15:18:34.055Z,4.63
2022-08-16T15:21:05.940Z,5.45
2022-08-16T15:23:40.359Z,5.43
2022-08-16T15:37:01.146Z,5.80
2022-08-16T15:42:27.299Z,8.43
2022-08-16T15:44:58.405Z,30.48
2022-08-16T15:47:29.125Z,6.47
2022-08-16T15:49:58.090Z,6.68
2022-08-16T15:52:35.774Z,6.00
2022-08-16T15:55:24.103Z,6.43
2022-08-16T15:57:55.845Z,15.48
2022-08-16T16:00:26.731Z,5.20
2022-08-16T16:03:08.581Z,6.13
2022-08-16T16:05:38.989Z,26.25
2022-08-16T16:08:11.614Z,15.88
2022-08-16T16:10:43.565Z,5.25
2022-08-16T16:13:23.087Z,5.75
2022-08-16T16:15:55.268Z,5.57
2022-08-16T16:18:27.441Z,6.47
2022-08-16T16:21:02.782Z,5.70
2022-08-16T16:23:41.156Z,5.13
2022-08-16T16:26:20.602Z,5.30
2022-08-16T16:29:07.660Z,6.40
2022-08-16T16:31:36.532Z,5.65
2022-08-16T16:34:07.698Z,6.03
2022-08-16T16:36:37.502Z,7.60
2022-08-16T16:39:08.459Z,6.28
2022-08-16T16:41:39.773Z,8.13
2022-08-16T16:44:10.178Z,6.68
2022-08-16T16:46:56.850Z,7.40
2022-08-16T16:49:26.793Z,6.93
2022-08-16T16:52:06.697Z,6.53
2022-08-16T16:54:35.829Z,6.10
2022-08-16T16:57:04.025Z,7.18
2022-08-16T16:59:31.532Z,8.02
2022-08-16T17:02:39.430Z,5.57
2022-08-16T17:04:47.807Z,6.45
2022-08-16T17:07:15.801Z,7.25
2022-08-16T17:09:45.989Z,6.55
2022-08-16T17:12:23.608Z,7.70
2022-08-16T17:14:55.285Z,6.90
2022-08-16T17:17:23.254Z,6.93
2022-08-16T17:19:51.018Z,6.53
2022-08-16T17:22:21.380Z,6.43
2022-08-16T17:24:52.136Z,7.15
2022-08-16T17:27:32.642Z,7.78
2022-08-16T17:30:15.702Z,7.18
2022-08-16T17:32:54.539Z,7.28
2022-08-16T17:35:35.391Z,7.97
2022-08-16T17:38:09.363Z,10.40
2022-08-16T17:40:54.940Z,12.88
2022-08-16T17:43:36.613Z,13.10
2022-08-16T17:46:06.386Z,9.02
2022-08-16T17:48:53.770Z,10.73
2022-08-16T17:51:24.023Z,10.13
2022-08-16T17:53:51.733Z,11.25
2022-08-16T17:56:20.818Z,9.60
2022-08-16T17:58:48.319Z,9.13
2022-08-16T18:01:15.956Z,9.20
2022-08-16T18:04:07.712Z,8.80
2022-08-16T18:06:31.146Z,9.90
2022-08-16T18:09:03.508Z,9.32
2022-08-16T18:11:41.125Z,12.52
2022-08-16T18:14:09.891Z,10.38
2022-08-16T18:16:37.283Z,11.25
2022-08-16T18:19:04.821Z,11.50
2022-08-16T18:21:50.711Z,10.13
2022-08-16T18:24:19.255Z,10.55
2022-08-16T18:26:47.160Z,11.52
2022-08-16T18:29:14.630Z,11.13
2022-08-16T18:31:42.199Z,10.32
2022-08-16T18:34:09.849Z,10.00
2022-08-16T18:36:37.485Z,16.30
2022-08-16T18:39:05.294Z,14.20
2022-08-16T18:41:37.387Z,14.15
2022-08-16T18:44:24.771Z,14.30
2022-08-16T18:46:55.889Z,13.90
2022-08-16T18:49:23.333Z,13.68
2022-08-16T18:51:51.152Z,10.68
2022-08-16T18:54:18.934Z,11.18
2022-08-16T18:56:56.770Z,10.43
2022-08-16T18:59:27.531Z,11.77
2022-08-16T19:01:59.749Z,9.68
2022-08-16T19:04:55.272Z,10.00
2022-08-16T19:07:20.563Z,10.50
2022-08-16T19:09:49.838Z,10.07
2022-08-16T19:12:17.279Z,12.13
2022-08-16T19:15:08.081Z,12.98
2022-08-16T19:17:39.944Z,12.38
2022-08-16T19:20:10.726Z,13.38
2022-08-16T19:23:02.064Z,13.27
2022-08-16T19:25:47.900Z,11.77
2022-08-16T19:28:51.138Z,11.50
2022-08-16T19:31:30.186Z,11.40
2022-08-16T19:33:58.441Z,11.15
2022-08-16T19:36:40.702Z,11.32
2022-08-16T19:39:11.612Z,10.00
2022-08-16T19:41:53.233Z,11.05
2022-08-16T19:44:24.958Z,10.77
2022-08-16T19:46:52.569Z,10.73
2022-08-16T19:49:20.177Z,11.50
2022-08-16T19:51:48.395Z,12.18
2022-08-16T19:54:16.643Z,11.85
2022-08-16T19:56:44.147Z,11.20
2022-08-16T19:59:21.033Z,13.18
2022-08-16T20:01:52.629Z,13.50
2022-08-16T20:04:22.377Z,12.32
2022-08-16T20:06:50.656Z,14.18
2022-08-16T20:09:22.254Z,13.07
2022-08-16T20:14:24.345Z,11.82
2022-08-16T20:16:54.992Z,11.57
2022-08-16T20:19:22.475Z,11.05
2022-08-16T20:21:50.123Z,10.95
2022-08-16T20:24:33.598Z,11.35
2022-08-16T20:27:02.573Z,10.93
2022-08-16T20:29:30.015Z,10.70
2022-08-16T20:31:57.435Z,10.13
2022-08-16T20:34:25.404Z,10.18
2022-08-16T20:36:52.853Z,12.52
2022-08-16T20:39:20.275Z,10.15
2022-08-16T20:41:47.753Z,9.75
2022-08-16T20:44:15.399Z,11.35
2022-08-16T20:46:50.085Z,9.93
2022-08-16T20:49:17.540Z,10.02
2022-08-16T20:51:50.953Z,10.27
2022-08-16T20:54:19.870Z,10.55
2022-08-16T20:56:47.709Z,10.00
2022-08-16T20:59:15.468Z,9.35
2022-08-16T21:01:46.969Z,10.15
2022-08-16T21:04:19.023Z,10.02
2022-08-16T21:06:54.296Z,8.65
2022-08-16T21:09:27.398Z,9.73
2022-08-16T21:11:57.173Z,9.82
2022-08-16T21:14:25.108Z,9.80
2022-08-16T21:16:52.792Z,8.95
2022-08-16T21:19:21.360Z,8.05
2022-08-16T21:21:49.675Z,8.75
2022-08-16T21:24:17.403Z,10.43
2022-08-16T21:26:53.018Z,8.68
2022-08-16T21:29:37.794Z,8.77
2022-08-16T21:32:17.994Z,9.10
2022-08-16T21:34:45.884Z,8.05
2022-08-16T21:37:15.617Z,8.75
2022-08-16T21:39:43.423Z,8.60
2022-08-16T21:42:18.215Z,7.90
2022-08-16T21:44:46.041Z,7.97
2022-08-16T21:47:13.683Z,8.95
2022-08-16T21:49:41.218Z,9.40
2022-08-16T21:52:09.728Z,8.70
2022-08-16T21:54:56.425Z,8.50
2022-08-16T21:57:24.564Z,8.30
2022-08-16T21:59:55.956Z,8.13
2022-08-16T22:02:27.368Z,8.98
2022-08-16T22:05:03.608Z,9.02
2022-08-16T22:07:31.147Z,8.70
2022-08-16T22:09:58.588Z,8.98
2022-08-16T22:12:46.400Z,9.10
2022-08-16T22:15:15.080Z,9.20
2022-08-16T22:17:43.369Z,7.88
2022-08-16T22:20:11.720Z,8.67
2022-08-16T22:22:39.228Z,8.52
2022-08-16T22:25:07.052Z,8.52
2022-08-16T22:27:35.108Z,8.65
2022-08-16T22:30:02.578Z,10.45
2022-08-16T22:32:37.262Z,9.13
2022-08-16T22:35:11.667Z,10.43
2022-08-16T22:38:50.183Z,16.70
2022-08-16T22:40:29.571Z,16.90
2022-08-16T22:42:56.871Z,13.43
2022-08-16T22:45:24.342Z,9.93
2022-08-16T22:47:52.281Z,9.02
2022-08-16T22:50:19.774Z,9.73
2022-08-16T22:52:56.455Z,9.65
2022-08-16T22:55:28.120Z,9.73
2022-08-16T22:57:55.707Z,10.75
2022-08-16T23:00:26.949Z,10.70
2022-08-16T23:03:08.538Z,11.65
2022-08-16T23:05:50.531Z,10.48
2022-08-16T23:08:38.031Z,10.25
2022-08-16T23:11:12.735Z,10.50
2022-08-16T23:13:49.675Z,9.25
2022-08-16T23:16:33.396Z,10.27
2022-08-16T23:19:06.245Z,11.98
2022-08-16T23:21:34.971Z,10.75
2022-08-16T23:24:02.898Z,10.15
2022-08-16T23:26:44.874Z,10.15
2022-08-16T23:29:26.271Z,10.68
2022-08-16T23:32:08.987Z,10.55
2022-08-16T23:34:36.975Z,9.10
2022-08-16T23:37:06.900Z,9.02
2022-08-16T23:39:36.192Z,9.98
2022-08-16T23:42:52.339Z,9.63
2022-08-16T23:45:06.529Z,9.73
2022-08-16T23:47:37.334Z,8.82
2022-08-16T23:50:05.240Z,9.70
2022-08-16T23:52:38.410Z,9.05
2022-08-16T23:55:20.260Z,9.80
2022-08-16T23:57:47.917Z,9.18
